Time;durP1;ratioP1;P1;durP2;ratioP2;P2;SDS_P1;SDS_P2;PMS_P1;PMS_P2;Temp;Humidity;BMP_temperature;BMP_pressure;BME280_temperature;BME280_humidity;BME280_pressure;Samples;Min_cycle;Max_cycle;Signal;HPM_P1;HPM_P2
2022/09/13 09:13:28;;;;;;;;;;;14.60;61.20;;;;;;6174840;23;19999;-69
2022/09/13 09:15:56;;;;;;;;;;;14.60;60.80;;;;;;6182051;23;19912;-67
2022/09/13 09:18:36;;;;;;;;;;;14.60;60.90;;;;;;6155935;23;19979;-69
2022/09/13 09:21:02;;;;;;;;;;;14.60;60.80;;;;;;6181810;23;20365;-68
2022/09/13 09:23:29;;;;;;;;;;;14.60;61.20;;;;;;6179856;23;19909;-68
2022/09/13 09:25:57;;;;;;;;;;;14.60;61.10;;;;;;6181537;23;19916;-69
2022/09/13 09:28:25;;;;;;;;;;;14.60;61.30;;;;;;6156541;23;19909;-70
2022/09/13 09:30:54;;;;;;;;;;;14.70;61.80;;;;;;6155714;23;19908;-69
2022/09/13 09:33:27;;;;;;;;;;;14.60;61.40;;;;;;6182419;23;19908;-69
2022/09/13 09:35:56;;;;;;;;;;;14.60;61.40;;;;;;6181689;23;19912;-69
2022/09/13 09:38:26;;;;;;;;;;;14.60;61.70;;;;;;6181712;23;19958;-70
2022/09/13 09:40:52;;;;;;;;;;;14.50;61.30;;;;;;6182108;23;19908;-70
2022/09/13 09:43:48;;;;;;;;;;;14.60;60.60;;;;;;6156301;23;20382;-70
2022/09/13 09:46:16;;;;;;;;;;;14.50;60.80;;;;;;6150397;23;19931;-71
2022/09/13 09:48:48;;;;;;;;;;;14.50;60.70;;;;;;6156262;23;19915;-71
2022/09/13 09:51:15;;;;;;;;;;;14.50;61.00;;;;;;6156185;23;20301;-68
2022/09/13 09:53:43;;;;;;;;;;;14.50;60.40;;;;;;6155766;23;19908;-68
2022/09/13 09:56:15;;;;;;;;;;;14.60;61.70;;;;;;6181360;23;19904;-68
2022/09/13 09:58:42;;;;;;;;;;;14.50;60.50;;;;;;6182067;23;19939;-68
2022/09/13 10:01:16;;;;;;;;;;;14.50;60.50;;;;;;6181887;23;19904;-67
2022/09/13 10:03:46;;;;;;;;;;;14.50;60.70;;;;;;6156176;23;19908;-68
2022/09/13 10:06:13;;;;;;;;;;;14.50;61.10;;;;;;6155447;23;19916;-67
2022/09/13 10:08:40;;;;;;;;;;;14.50;61.00;;;;;;6155816;23;19916;-69
2022/09/13 10:11:07;;;;;;;;;;;14.50;61.00;;;;;;6181748;23;19920;-68
2022/09/13 10:13:37;;;;;;;;;;;14.50;61.30;;;;;;6181859;23;20024;-68
2022/09/13 10:16:21;;;;;;;;;;;14.50;61.70;;;;;;6155940;23;20307;-68
2022/09/13 10:18:47;;;;;;;;;;;14.50;61.30;;;;;;6155623;23;20298;-67
2022/09/13 10:21:17;;;;;;;;;;;14.50;61.30;;;;;;6180050;23;19905;-68
2022/09/13 10:23:44;;;;;;;;;;;14.50;61.20;;;;;;6181852;23;19922;-68
2022/09/13 10:26:14;;;;;;;;;;;14.50;61.60;;;;;;6154784;23;19916;-67
2022/09/13 10:28:51;;;;;;;;;;;14.50;60.30;;;;;;6181745;23;19992;-71
2022/09/13 10:31:19;;;;;;;;;;;14.50;60.90;;;;;;6155764;23;19939;-70
2022/09/13 10:33:51;;;;;;;;;;;14.60;61.20;;;;;;6181802;23;19943;-70
2022/09/13 10:36:26;;;;;;;;;;;14.50;60.90;;;;;;6181354;23;19983;-70
2022/09/13 10:39:00;;;;;;;;;;;14.50;60.60;;;;;;6155064;23;19998;-69
2022/09/13 10:41:27;;;;;;;;;;;14.60;60.00;;;;;;6155433;23;19920;-70
2022/09/13 10:44:03;;;;;;;;;;;14.50;60.60;;;;;;6181431;23;19908;-70
2022/09/13 10:46:30;;;;;;;;;;;14.50;60.20;;;;;;6154943;23;19982;-69
2022/09/13 10:48:57;;;;;;;;;;;14.50;61.00;;;;;;6155055;23;20247;-73
2022/09/13 10:51:27;;;;;;;;;;;14.60;60.80;;;;;;6181162;23;20331;-68
2022/09/13 10:54:11;;;;;;;;;;;14.60;61.40;;;;;;6181685;23;19911;-70
2022/09/13 10:56:38;;;;;;;;;;;14.50;62.20;;;;;;6180199;23;19955;-68
2022/09/13 10:59:15;;;;;;;;;;;14.60;61.20;;;;;;6154779;23;19915;-68
2022/09/13 11:01:41;;;;;;;;;;;14.50;60.70;;;;;;6181295;23;19983;-70
2022/09/13 11:04:23;;;;;;;;;;;14.60;60.70;;;;;;6181360;23;19915;-69
2022/09/13 11:06:50;;;;;;;;;;;14.60;60.80;;;;;;6181603;23;19950;-68
2022/09/13 11:09:16;;;;;;;;;;;14.60;60.40;;;;;;6181341;23;19935;-69
2022/09/13 11:11:52;;;;;;;;;;;14.60;60.40;;;;;;6181292;23;19912;-68
2022/09/13 11:14:39;;;;;;;;;;;14.60;60.60;;;;;;6154436;23;19923;-69
2022/09/13 11:17:18;;;;;;;;;;;14.50;60.30;;;;;;6180360;23;19908;-69
2022/09/13 11:19:45;;;;;;;;;;;14.50;59.90;;;;;;6155206;23;20256;-72
2022/09/13 11:22:30;;;;;;;;;;;14.50;59.80;;;;;;6178226;23;19914;-71
2022/09/13 11:25:18;;;;;;;;;;;14.50;60.20;;;;;;6179964;23;20624;-72
2022/09/13 11:28:03;;;;;;;;;;;14.50;60.20;;;;;;6154069;23;19935;-71
2022/09/13 11:30:30;;;;;;;;;;;14.60;59.70;;;;;;6154947;23;19908;-71
2022/09/13 11:33:07;;;;;;;;;;;14.50;60.00;;;;;;6155347;23;19912;-71
2022/09/13 11:35:34;;;;;;;;;;;14.50;60.10;;;;;;6181518;23;19962;-71
2022/09/13 11:38:00;;;;;;;;;;;14.50;59.60;;;;;;6180983;23;19987;-70
2022/09/13 11:40:39;;;;;;;;;;;14.50;59.80;;;;;;6181190;23;19908;-68
2022/09/13 11:43:11;;;;;;;;;;;14.50;59.50;;;;;;6181097;23;19908;-67
2022/09/13 11:45:56;;;;;;;;;;;14.50;59.90;;;;;;6180946;23;20332;-68
2022/09/13 11:48:23;;;;;;;;;;;14.50;59.80;;;;;;6180814;23;19904;-68
2022/09/13 11:50:49;;;;;;;;;;;14.50;60.30;;;;;;6180326;23;20252;-68
2022/09/13 11:53:16;;;;;;;;;;;14.50;60.30;;;;;;6181243;23;19908;-68
2022/09/13 11:55:47;;;;;;;;;;;14.50;60.80;;;;;;6180585;23;19904;-67
2022/09/13 11:58:27;;;;;;;;;;;14.50;60.60;;;;;;6155149;23;19908;-68
2022/09/13 12:00:55;;;;;;;;;;;14.40;61.60;;;;;;6155735;23;19983;-68
2022/09/13 12:03:30;;;;;;;;;;;14.30;62.00;;;;;;6154696;23;19911;-68
2022/09/13 12:05:58;;;;;;;;;;;14.20;62.80;;;;;;6154470;23;19979;-70
2022/09/13 12:08:26;;;;;;;;;;;14.10;63.10;;;;;;6153486;23;19904;-67
2022/09/13 12:10:53;;;;;;;;;;;14.10;63.70;;;;;;6154512;23;20243;-67
2022/09/13 12:13:25;;;;;;;;;;;14.00;63.80;;;;;;6180413;23;19924;-67
2022/09/13 12:15:53;;;;;;;;;;;14.00;64.00;;;;;;6154459;23;20071;-66
2022/09/13 12:18:27;;;;;;;;;;;13.90;64.00;;;;;;6180888;23;19909;-70
2022/09/13 12:20:55;;;;;;;;;;;13.80;64.20;;;;;;6129065;23;20338;-68
2022/09/13 12:23:31;;;;;;;;;;;13.70;64.50;;;;;;6152986;23;20283;-68
2022/09/13 12:26:02;;;;;;;;;;;13.70;64.80;;;;;;6154678;23;19920;-67
2022/09/13 12:28:32;;;;;;;;;;;13.70;65.10;;;;;;6154426;23;19911;-68
2022/09/13 12:31:06;;;;;;;;;;;13.70;65.30;;;;;;6155929;23;19917;-68
2022/09/13 17:09:48;;;;;;;;;;;11.00;74.90;;;;;;6184924;23;19942;-70
2022/09/13 17:12:15;;;;;;;;;;;11.00;74.50;;;;;;6185581;23;19912;-70
2022/09/13 17:14:42;;;;;;;;;;;10.90;74.80;;;;;;6185816;23;19931;-70
2022/09/13 17:17:08;;;;;;;;;;;10.90;75.30;;;;;;6185372;23;19911;-70
2022/09/13 17:19:35;;;;;;;;;;;10.90;75.00;;;;;;6185406;23;20382;-70
2022/09/13 17:22:03;;;;;;;;;;;10.80;75.00;;;;;;6185805;23;19904;-70
2022/09/13 17:24:30;;;;;;;;;;;10.90;75.30;;;;;;6159089;23;19904;-70
2022/09/13 17:26:57;;;;;;;;;;;10.90;75.10;;;;;;6185575;23;19915;-70
2022/09/13 17:29:32;;;;;;;;;;;10.80;75.20;;;;;;6185395;23;19904;-70
2022/09/13 17:31:59;;;;;;;;;;;10.70;75.20;;;;;;6184816;23;19905;-70
2022/09/13 17:34:27;;;;;;;;;;;10.70;75.40;;;;;;6158977;23;19919;-70
2022/09/13 17:36:53;;;;;;;;;;;10.70;75.70;;;;;;6185133;23;19954;-70
2022/09/13 17:39:20;;;;;;;;;;;10.70;75.50;;;;;;6186213;23;20351;-70
2022/09/13 17:41:50;;;;;;;;;;;10.70;75.60;;;;;;6183147;23;19912;-70
2022/09/13 17:44:17;;;;;;;;;;;10.70;75.50;;;;;;6185305;23;19908;-69
2022/09/13 17:46:43;;;;;;;;;;;10.70;75.90;;;;;;6185375;23;19912;-70
2022/09/13 17:49:10;;;;;;;;;;;10.70;75.50;;;;;;6185007;23;19931;-70
2022/09/13 17:51:36;;;;;;;;;;;10.70;75.10;;;;;;6185800;23;19908;-69
2022/09/13 17:54:04;;;;;;;;;;;10.70;75.20;;;;;;6185240;23;19983;-70
2022/09/13 17:56:35;;;;;;;;;;;10.70;75.20;;;;;;6185377;23;19908;-69
2022/09/13 17:59:10;;;;;;;;;;;10.70;75.30;;;;;;6184614;23;19905;-69
2022/09/13 18:01:37;;;;;;;;;;;10.70;75.30;;;;;;6185290;23;19908;-70
2022/09/13 18:04:05;;;;;;;;;;;10.70;75.60;;;;;;6185305;23;19939;-69
2022/09/13 18:06:31;;;;;;;;;;;10.70;75.30;;;;;;6159315;23;20026;-69
2022/09/13 18:08:58;;;;;;;;;;;10.70;75.40;;;;;;6184785;23;20351;-69
2022/09/13 18:11:24;;;;;;;;;;;10.70;75.00;;;;;;6159047;23;19904;-69
2022/09/13 18:13:51;;;;;;;;;;;10.70;75.20;;;;;;6185259;23;20340;-69
2022/09/13 18:16:18;;;;;;;;;;;10.70;75.10;;;;;;6158731;23;19936;-70
2022/09/13 18:18:46;;;;;;;;;;;10.70;75.20;;;;;;6184668;23;20039;-70
2022/09/13 18:21:17;;;;;;;;;;;10.70;75.10;;;;;;6184360;23;19914;-69
2022/09/13 18:23:44;;;;;;;;;;;10.70;75.40;;;;;;6184701;23;20030;-69
2022/09/13 18:26:11;;;;;;;;;;;10.60;75.70;;;;;;6158481;23;19912;-69
2022/09/13 18:28:38;;;;;;;;;;;10.60;75.80;;;;;;6183112;23;19908;-69
2022/09/13 18:31:05;;;;;;;;;;;10.50;75.60;;;;;;6184683;23;19987;-69
2022/09/13 18:33:32;;;;;;;;;;;10.50;75.50;;;;;;6158609;23;19908;-70
2022/09/13 18:35:59;;;;;;;;;;;10.50;75.70;;;;;;6183915;23;19915;-69
2022/09/13 18:38:26;;;;;;;;;;;10.50;75.80;;;;;;6158282;23;20015;-69
2022/09/13 18:41:00;;;;;;;;;;;10.50;75.70;;;;;;6184761;23;19946;-69
2022/09/13 18:43:26;;;;;;;;;;;10.60;75.60;;;;;;6158327;23;20303;-69
2022/09/13 18:45:56;;;;;;;;;;;10.50;76.00;;;;;;6184420;23;20346;-70
2022/09/13 18:48:23;;;;;;;;;;;10.50;75.90;;;;;;6158031;23;19911;-70
2022/09/13 18:50:50;;;;;;;;;;;10.50;75.90;;;;;;6158256;23;19904;-69
2022/09/13 18:53:16;;;;;;;;;;;10.50;75.80;;;;;;6158487;23;19931;-69
2022/09/13 18:55:43;;;;;;;;;;;10.40;76.10;;;;;;6184229;23;19984;-70
2022/09/13 18:58:10;;;;;;;;;;;10.40;75.90;;;;;;6184153;23;19909;-69
2022/09/13 19:00:36;;;;;;;;;;;10.40;76.00;;;;;;6184692;23;19982;-68
2022/09/13 19:03:04;;;;;;;;;;;10.40;75.80;;;;;;6184908;23;19932;-68
2022/09/13 19:05:31;;;;;;;;;;;10.30;75.90;;;;;;6158639;23;19920;-68
2022/09/13 19:07:58;;;;;;;;;;;10.30;76.30;;;;;;6158035;23;19935;-69
2022/09/13 19:10:25;;;;;;;;;;;10.30;76.10;;;;;;6184610;23;20271;-68
2022/09/13 19:12:51;;;;;;;;;;;10.30;76.30;;;;;;6185293;23;19912;-72
2022/09/13 19:15:18;;;;;;;;;;;10.30;76.20;;;;;;6185042;23;19904;-69
2022/09/13 19:17:44;;;;;;;;;;;10.20;76.50;;;;;;6184003;23;20395;-69
2022/09/13 19:20:11;;;;;;;;;;;10.20;76.50;;;;;;6183535;23;19904;-68
2022/09/13 19:22:38;;;;;;;;;;;10.20;76.70;;;;;;6184257;23;19904;-69
2022/09/13 19:25:04;;;;;;;;;;;10.20;76.40;;;;;;6183953;23;20354;-68
2022/09/13 19:27:31;;;;;;;;;;;10.20;76.90;;;;;;6184033;23;19904;-69
2022/09/13 19:29:58;;;;;;;;;;;10.20;76.70;;;;;;6183937;23;20529;-69
2022/09/13 19:32:24;;;;;;;;;;;10.20;76.80;;;;;;6184198;23;19947;-68
2022/09/13 19:34:51;;;;;;;;;;;10.20;77.40;;;;;;6184317;23;19906;-68
2022/09/13 19:37:17;;;;;;;;;;;10.20;77.60;;;;;;6184061;23;19911;-69
2022/09/13 19:39:45;;;;;;;;;;;10.20;77.40;;;;;;6182608;23;19908;-69
2022/09/13 19:42:12;;;;;;;;;;;10.20;77.50;;;;;;6156757;23;19951;-69
2022/09/13 19:44:38;;;;;;;;;;;10.20;77.40;;;;;;6182966;23;19931;-68
2022/09/13 19:47:06;;;;;;;;;;;10.20;77.20;;;;;;6183837;23;19911;-69
2022/09/13 19:49:32;;;;;;;;;;;10.20;77.30;;;;;;6183702;23;19911;-68
2022/09/13 19:52:00;;;;;;;;;;;10.20;77.40;;;;;;6183780;23;20213;-71
2022/09/13 19:54:27;;;;;;;;;;;10.20;77.60;;;;;;6183797;23;19919;-69
2022/09/13 19:56:53;;;;;;;;;;;10.20;77.60;;;;;;6184147;23;20221;-68
2022/09/13 19:59:22;;;;;;;;;;;10.20;78.10;;;;;;6182684;23;19939;-66
2022/09/13 20:01:49;;;;;;;;;;;10.20;78.00;;;;;;6182900;23;19928;-65
2022/09/13 20:04:19;;;;;;;;;;;10.20;78.30;;;;;;6184051;23;19904;-65
2022/09/13 20:06:47;;;;;;;;;;;10.20;78.20;;;;;;6183974;23;19916;-65
2022/09/13 20:09:14;;;;;;;;;;;10.20;78.00;;;;;;6184419;23;19916;-65
2022/09/13 20:11:44;;;;;;;;;;;10.20;78.30;;;;;;6184280;23;20324;-65
2022/09/13 20:14:11;;;;;;;;;;;10.30;78.00;;;;;;6183982;23;19980;-65
2022/09/13 20:16:38;;;;;;;;;;;10.30;77.90;;;;;;6184068;23;19919;-65
2022/09/13 20:19:05;;;;;;;;;;;10.30;77.70;;;;;;6183800;23;19959;-65
2022/09/13 20:21:32;;;;;;;;;;;10.30;77.40;;;;;;6183944;23;19983;-65
2022/09/13 20:24:01;;;;;;;;;;;10.30;77.30;;;;;;6183863;23;19952;-65
2022/09/13 20:26:28;;;;;;;;;;;10.30;77.70;;;;;;6183788;23;20328;-65
2022/09/13 20:28:55;;;;;;;;;;;10.30;77.40;;;;;;6183584;23;19904;-65
2022/09/13 20:31:22;;;;;;;;;;;10.30;77.20;;;;;;6183391;23;19936;-65
2022/09/13 20:33:53;;;;;;;;;;;10.30;77.50;;;;;;6184584;23;19983;-65
2022/09/13 20:36:19;;;;;;;;;;;10.40;77.50;;;;;;6158187;23;19915;-65
2022/09/13 20:38:47;;;;;;;;;;;10.40;78.10;;;;;;6184685;23;19915;-67
2022/09/13 20:41:13;;;;;;;;;;;10.50;77.60;;;;;;6183903;23;19908;-65
2022/09/13 20:43:43;;;;;;;;;;;10.50;77.20;;;;;;6184601;23;19915;-65
2022/09/13 20:46:11;;;;;;;;;;;10.50;77.00;;;;;;6184049;23;19943;-65
2022/09/13 20:48:38;;;;;;;;;;;10.50;76.90;;;;;;6184323;23;19936;-66
2022/09/13 20:51:09;;;;;;;;;;;10.50;76.50;;;;;;6184688;23;19984;-65
2022/09/13 22:10:46;;;;;;;;;;;12.20;74.80;;;;;;6179171;23;19923;-70
2022/09/13 22:13:12;;;;;;;;;;;12.20;74.90;;;;;;6154968;23;19971;-70
2022/09/13 22:15:39;;;;;;;;;;;12.30;74.80;;;;;;6153717;23;20299;-70
2022/09/13 22:18:05;;;;;;;;;;;12.30;74.70;;;;;;6154718;23;19988;-69
2022/09/13 22:20:34;;;;;;;;;;;12.40;74.90;;;;;;6154737;23;19944;-70
2022/09/13 22:23:00;;;;;;;;;;;12.50;74.80;;;;;;6154907;23;20344;-70
2022/09/13 22:25:27;;;;;;;;;;;12.50;75.30;;;;;;6155309;23;19920;-70
2022/09/13 22:27:54;;;;;;;;;;;12.60;75.20;;;;;;6155240;23;19905;-70
2022/09/13 22:30:21;;;;;;;;;;;12.70;75.30;;;;;;6129041;23;19946;-70
2022/09/13 22:32:48;;;;;;;;;;;12.70;74.70;;;;;;6128741;23;20225;-70
2022/09/13 22:35:14;;;;;;;;;;;12.70;75.00;;;;;;6155164;23;19909;-70
2022/09/13 22:37:42;;;;;;;;;;;12.80;74.70;;;;;;6154872;23;20244;-70
2022/09/13 22:40:08;;;;;;;;;;;12.80;74.90;;;;;;6154705;23;20228;-70
2022/09/13 22:42:35;;;;;;;;;;;12.90;74.30;;;;;;6155125;23;19936;-70
2022/09/13 22:45:01;;;;;;;;;;;12.90;74.40;;;;;;6154726;23;19924;-70
2022/09/13 22:47:28;;;;;;;;;;;13.00;74.60;;;;;;6154847;23;19905;-70
2022/09/13 22:49:55;;;;;;;;;;;13.10;74.90;;;;;;6154973;23;20233;-71
2022/09/13 22:52:21;;;;;;;;;;;13.10;75.00;;;;;;6155075;23;19904;-70
2022/09/13 22:54:49;;;;;;;;;;;13.20;75.10;;;;;;6154658;23;19905;-70
2022/09/13 22:57:16;;;;;;;;;;;13.20;74.80;;;;;;6154918;23;19919;-70
2022/09/13 22:59:42;;;;;;;;;;;13.30;74.80;;;;;;6155038;23;19905;-70
2022/09/13 23:02:09;;;;;;;;;;;13.40;75.10;;;;;;6154597;23;19913;-70
2022/09/13 23:04:36;;;;;;;;;;;13.50;74.90;;;;;;6154721;23;19908;-70
2022/09/13 23:07:02;;;;;;;;;;;13.50;75.40;;;;;;6154607;23;19987;-70
2022/09/13 23:09:29;;;;;;;;;;;13.60;75.00;;;;;;6155128;23;19958;-71
2022/09/13 23:11:56;;;;;;;;;;;13.70;75.30;;;;;;6172009;23;20248;-70
2022/09/13 23:14:22;;;;;;;;;;;13.70;75.30;;;;;;6184144;23;19905;-71
2022/09/13 23:16:49;;;;;;;;;;;13.80;74.70;;;;;;6184802;23;20244;-70
2022/09/13 23:19:17;;;;;;;;;;;13.90;75.20;;;;;;6184622;23;19908;-71
2022/09/13 23:21:43;;;;;;;;;;;13.90;74.10;;;;;;6184286;23;19959;-71
2022/09/13 23:24:11;;;;;;;;;;;14.00;74.20;;;;;;6184343;23;20304;-70
2022/09/13 23:26:38;;;;;;;;;;;14.10;74.30;;;;;;6184060;23;19994;-70
2022/09/13 23:29:05;;;;;;;;;;;14.20;74.30;;;;;;6183439;23;20343;-71
2022/09/13 23:31:33;;;;;;;;;;;14.20;73.40;;;;;;6183471;23;20348;-71
2022/09/13 23:34:00;;;;;;;;;;;14.20;73.50;;;;;;6183672;23;19904;-71
2022/09/13 23:36:28;;;;;;;;;;;14.30;73.50;;;;;;6182404;23;19940;-71
2022/09/13 23:38:56;;;;;;;;;;;14.30;73.40;;;;;;6183625;23;19904;-71
2022/09/13 23:41:24;;;;;;;;;;;14.40;72.50;;;;;;6183684;23;19912;-71
2022/09/13 23:43:51;;;;;;;;;;;14.40;72.00;;;;;;6158243;23;19904;-71
2022/09/13 23:46:18;;;;;;;;;;;14.50;71.00;;;;;;6157647;23;19916;-71
2022/09/13 23:48:44;;;;;;;;;;;14.70;69.80;;;;;;6155927;23;19905;-71
2022/09/13 23:51:15;;;;;;;;;;;14.70;70.00;;;;;;6183850;23;20338;-71
2022/09/13 23:53:42;;;;;;;;;;;14.70;68.30;;;;;;6183586;23;19983;-71
2022/09/13 23:56:08;;;;;;;;;;;14.70;67.10;;;;;;6183763;23;19940;-71
2022/09/13 23:58:35;;;;;;;;;;;14.70;68.00;;;;;;6183478;23;19979;-71
